sensor_id;sensor_type;location;lat;lon;timestamp;pressure;altitude;pressure_sealevel;temperature;humidity
22580;BME280;11456;47.030;15.396;2023-05-23T00:01:08;97245.91;;;16.51;90.23
22580;BME280;11456;47.030;15.396;2023-05-23T00:03:35;97237.06;;;16.70;88.96
22580;BME280;11456;47.030;15.396;2023-05-23T00:06:04;97228.03;;;16.63;89.32
22580;BME280;11456;47.030;15.396;2023-05-23T00:08:31;97234.22;;;16.57;89.54
22580;BME280;11456;47.030;15.396;2023-05-23T00:10:58;97235.66;;;16.53;90.13
22580;BME280;11456;47.030;15.396;2023-05-23T00:13:24;97230.38;;;16.45;90.35
22580;BME280;11456;47.030;15.396;2023-05-23T00:15:52;97222.00;;;16.47;90.50
22580;BME280;11456;47.030;15.396;2023-05-23T00:18:18;97229.28;;;16.39;90.69
22580;BME280;11456;47.030;15.396;2023-05-23T00:20:45;97242.34;;;16.23;91.36
22580;BME280;11456;47.030;15.396;2023-05-23T00:23:12;97229.50;;;16.38;90.89
22580;BME280;11456;47.030;15.396;2023-05-23T00:25:45;97234.94;;;16.38;90.17
22580;BME280;11456;47.030;15.396;2023-05-23T00:28:18;97229.78;;;16.22;91.33
22580;BME280;11456;47.030;15.396;2023-05-23T00:30:44;97232.16;;;16.03;92.68
22580;BME280;11456;47.030;15.396;2023-05-23T00:33:11;97235.66;;;16.19;92.10
22580;BME280;11456;47.030;15.396;2023-05-23T00:35:40;97244.31;;;16.08;93.44
22580;BME280;11456;47.030;15.396;2023-05-23T00:38:07;97238.81;;;16.01;93.61
22580;BME280;11456;47.030;15.396;2023-05-23T00:40:34;97240.56;;;16.09;93.75
22580;BME280;11456;47.030;15.396;2023-05-23T00:43:01;97236.53;;;16.26;92.54
22580;BME280;11456;47.030;15.396;2023-05-23T00:45:27;97231.28;;;16.24;92.16
22580;BME280;11456;47.030;15.396;2023-05-23T00:47:54;97223.03;;;16.11;92.06
22580;BME280;11456;47.030;15.396;2023-05-23T00:50:21;97226.97;;;16.09;92.67
22580;BME280;11456;47.030;15.396;2023-05-23T00:52:47;97231.38;;;16.10;92.84
22580;BME280;11456;47.030;15.396;2023-05-23T00:55:14;97232.13;;;16.25;92.44
22580;BME280;11456;47.030;15.396;2023-05-23T00:57:41;97223.72;;;16.20;92.05
22580;BME280;11456;47.030;15.396;2023-05-23T01:00:12;97237.22;;;16.07;92.26
22580;BME280;11456;47.030;15.396;2023-05-23T01:02:42;97232.59;;;16.07;92.48
22580;BME280;11456;47.030;15.396;2023-05-23T01:05:14;97240.91;;;15.99;92.53
22580;BME280;11456;47.030;15.396;2023-05-23T01:07:43;97241.13;;;15.76;93.59
22580;BME280;11456;47.030;15.396;2023-05-23T01:10:10;97237.00;;;15.80;93.11
22580;BME280;11456;47.030;15.396;2023-05-23T01:15:20;97225.34;;;15.86;92.54
22580;BME280;11456;47.030;15.396;2023-05-23T01:17:50;97223.41;;;15.80;92.69
22580;BME280;11456;47.030;15.396;2023-05-23T01:20:21;97227.03;;;15.66;93.47
22580;BME280;11456;47.030;15.396;2023-05-23T01:25:38;97216.06;;;15.74;92.67
22580;BME280;11456;47.030;15.396;2023-05-23T01:28:06;97220.06;;;15.78;92.45
22580;BME280;11456;47.030;15.396;2023-05-23T01:30:34;97219.69;;;15.60;93.81
22580;BME280;11456;47.030;15.396;2023-05-23T01:33:02;97226.50;;;15.56;95.06
22580;BME280;11456;47.030;15.396;2023-05-23T01:35:29;97212.03;;;15.49;95.02
22580;BME280;11456;47.030;15.396;2023-05-23T01:37:56;97216.31;;;15.58;94.95
22580;BME280;11456;47.030;15.396;2023-05-23T01:40:23;97213.34;;;15.53;94.67
22580;BME280;11456;47.030;15.396;2023-05-23T01:42:50;97216.50;;;15.56;94.22
22580;BME280;11456;47.030;15.396;2023-05-23T01:45:17;97213.69;;;15.50;93.90
22580;BME280;11456;47.030;15.396;2023-05-23T01:47:45;97217.03;;;15.31;94.96
22580;BME280;11456;47.030;15.396;2023-05-23T01:50:12;97211.25;;;15.34;94.91
22580;BME280;11456;47.030;15.396;2023-05-23T01:52:40;97210.78;;;15.51;94.14
22580;BME280;11456;47.030;15.396;2023-05-23T01:55:07;97210.84;;;15.15;96.95
22580;BME280;11456;47.030;15.396;2023-05-23T01:57:36;97210.69;;;15.23;96.83
22580;BME280;11456;47.030;15.396;2023-05-23T02:00:04;97206.97;;;15.24;96.00
22580;BME280;11456;47.030;15.396;2023-05-23T02:02:38;97207.72;;;15.18;95.92
22580;BME280;11456;47.030;15.396;2023-05-23T02:05:05;97208.13;;;15.15;96.39
22580;BME280;11456;47.030;15.396;2023-05-23T02:07:32;97209.66;;;15.24;96.14
22580;BME280;11456;47.030;15.396;2023-05-23T02:09:59;97199.59;;;15.18;96.50
22580;BME280;11456;47.030;15.396;2023-05-23T02:12:27;97211.22;;;15.12;97.72
22580;BME280;11456;47.030;15.396;2023-05-23T02:14:53;97209.66;;;15.24;97.13
22580;BME280;11456;47.030;15.396;2023-05-23T02:17:20;97203.63;;;15.22;96.38
22580;BME280;11456;47.030;15.396;2023-05-23T02:19:50;97202.56;;;15.23;96.03
22580;BME280;11456;47.030;15.396;2023-05-23T02:22:16;97199.69;;;14.89;96.87
22580;BME280;11456;47.030;15.396;2023-05-23T02:24:43;97204.84;;;14.84;97.57
22580;BME280;11456;47.030;15.396;2023-05-23T02:27:11;97198.84;;;14.74;97.82
22580;BME280;11456;47.030;15.396;2023-05-23T02:29:38;97200.44;;;14.83;98.22
22580;BME280;11456;47.030;15.396;2023-05-23T02:32:04;97194.78;;;14.99;97.13
22580;BME280;11456;47.030;15.396;2023-05-23T02:34:31;97194.03;;;15.05;95.87
22580;BME280;11456;47.030;15.396;2023-05-23T02:36:58;97191.53;;;15.04;96.02
22580;BME280;11456;47.030;15.396;2023-05-23T02:39:24;97183.56;;;15.02;95.48
22580;BME280;11456;47.030;15.396;2023-05-23T02:41:53;97187.16;;;14.88;96.32
22580;BME280;11456;47.030;15.396;2023-05-23T02:44:19;97185.97;;;14.76;97.60
22580;BME280;11456;47.030;15.396;2023-05-23T02:46:46;97181.56;;;14.75;97.90
22580;BME280;11456;47.030;15.396;2023-05-23T02:49:13;97171.53;;;14.90;97.26
22580;BME280;11456;47.030;15.396;2023-05-23T02:51:39;97175.19;;;14.97;96.65
22580;BME280;11456;47.030;15.396;2023-05-23T02:54:06;97171.63;;;14.97;96.26
22580;BME280;11456;47.030;15.396;2023-05-23T02:56:36;97172.66;;;14.96;96.02
22580;BME280;11456;47.030;15.396;2023-05-23T02:59:02;97174.13;;;14.98;96.66
22580;BME280;11456;47.030;15.396;2023-05-23T03:01:29;97170.63;;;15.04;96.24
22580;BME280;11456;47.030;15.396;2023-05-23T03:03:56;97169.94;;;14.96;95.94
22580;BME280;11456;47.030;15.396;2023-05-23T03:06:22;97170.28;;;15.07;96.12
22580;BME280;11456;47.030;15.396;2023-05-23T03:08:49;97174.41;;;15.03;95.51
22580;BME280;11456;47.030;15.396;2023-05-23T03:11:16;97176.34;;;15.09;94.88
22580;BME280;11456;47.030;15.396;2023-05-23T03:13:42;97174.00;;;15.06;94.42
22580;BME280;11456;47.030;15.396;2023-05-23T03:16:09;97173.84;;;14.93;95.05
22580;BME280;11456;47.030;15.396;2023-05-23T03:18:37;97176.81;;;14.98;96.06
22580;BME280;11456;47.030;15.396;2023-05-23T03:21:06;97169.34;;;15.00;96.38
22580;BME280;11456;47.030;15.396;2023-05-23T03:23:34;97171.03;;;15.01;96.48
22580;BME280;11456;47.030;15.396;2023-05-23T03:26:02;97169.22;;;14.72;98.49
22580;BME280;11456;47.030;15.396;2023-05-23T03:28:32;97161.16;;;14.79;98.53
22580;BME280;11456;47.030;15.396;2023-05-23T03:30:58;97165.91;;;14.92;97.62
22580;BME280;11456;47.030;15.396;2023-05-23T03:33:25;97167.66;;;14.99;96.71
22580;BME280;11456;47.030;15.396;2023-05-23T03:35:52;97166.47;;;15.02;96.35
22580;BME280;11456;47.030;15.396;2023-05-23T03:38:19;97180.59;;;14.97;96.45
22580;BME280;11456;47.030;15.396;2023-05-23T03:40:46;97187.81;;;14.90;97.31
22580;BME280;11456;47.030;15.396;2023-05-23T03:43:13;97179.69;;;14.90;97.57
22580;BME280;11456;47.030;15.396;2023-05-23T03:45:41;97175.19;;;14.97;97.40
22580;BME280;11456;47.030;15.396;2023-05-23T03:48:12;97176.19;;;14.96;97.04
22580;BME280;11456;47.030;15.396;2023-05-23T03:50:40;97180.44;;;14.84;97.59
22580;BME280;11456;47.030;15.396;2023-05-23T03:53:08;97178.06;;;14.96;97.38
22580;BME280;11456;47.030;15.396;2023-05-23T03:55:37;97182.72;;;15.02;96.65
22580;BME280;11456;47.030;15.396;2023-05-23T03:58:04;97183.81;;;15.07;96.94
22580;BME280;11456;47.030;15.396;2023-05-23T04:00:31;97183.31;;;15.18;96.18
22580;BME280;11456;47.030;15.396;2023-05-23T04:02:59;97192.31;;;15.40;95.64
22580;BME280;11456;47.030;15.396;2023-05-23T04:05:27;97186.56;;;15.29;95.47
22580;BME280;11456;47.030;15.396;2023-05-23T04:07:54;97193.78;;;15.21;96.10
22580;BME280;11456;47.030;15.396;2023-05-23T04:10:21;97184.09;;;15.12;97.38
22580;BME280;11456;47.030;15.396;2023-05-23T04:12:48;97191.72;;;15.23;96.67
22580;BME280;11456;47.030;15.396;2023-05-23T04:15:16;97183.91;;;15.35;96.53
22580;BME280;11456;47.030;15.396;2023-05-23T04:17:58;97190.19;;;15.36;96.38
22580;BME280;11456;47.030;15.396;2023-05-23T04:20:25;97192.31;;;15.40;96.98
22580;BME280;11456;47.030;15.396;2023-05-23T04:22:52;97186.13;;;15.68;95.78
22580;BME280;11456;47.030;15.396;2023-05-23T04:25:18;97178.97;;;15.88;94.66
22580;BME280;11456;47.030;15.396;2023-05-23T04:27:57;97189.97;;;16.08;93.97
22580;BME280;11456;47.030;15.396;2023-05-23T04:30:25;97184.03;;;16.19;93.74
22580;BME280;11456;47.030;15.396;2023-05-23T04:32:51;97180.50;;;16.25;93.30
22580;BME280;11456;47.030;15.396;2023-05-23T04:35:19;97178.81;;;16.24;93.79
22580;BME280;11456;47.030;15.396;2023-05-23T04:37:46;97182.56;;;16.23;94.12
22580;BME280;11456;47.030;15.396;2023-05-23T04:40:13;97177.59;;;16.33;94.14
22580;BME280;11456;47.030;15.396;2023-05-23T04:42:56;97171.97;;;16.62;92.67
22580;BME280;11456;47.030;15.396;2023-05-23T04:45:46;97177.25;;;16.83;91.56
22580;BME280;11456;47.030;15.396;2023-05-23T04:48:33;97176.75;;;17.08;90.70
22580;BME280;11456;47.030;15.396;2023-05-23T04:51:01;97171.50;;;17.06;90.54
22580;BME280;11456;47.030;15.396;2023-05-23T04:53:32;97179.25;;;17.16;90.75
22580;BME280;11456;47.030;15.396;2023-05-23T04:55:59;97181.00;;;17.43;89.87
22580;BME280;11456;47.030;15.396;2023-05-23T04:58:26;97170.13;;;17.56;89.06
22580;BME280;11456;47.030;15.396;2023-05-23T05:00:56;97176.22;;;17.52;88.67
22580;BME280;11456;47.030;15.396;2023-05-23T05:03:22;97175.56;;;17.56;88.07
22580;BME280;11456;47.030;15.396;2023-05-23T05:05:50;97172.69;;;17.78;87.42
22580;BME280;11456;47.030;15.396;2023-05-23T05:08:17;97173.53;;;17.85;86.76
22580;BME280;11456;47.030;15.396;2023-05-23T05:10:45;97179.19;;;18.16;86.03
22580;BME280;11456;47.030;15.396;2023-05-23T05:13:13;97170.38;;;17.88;86.56
22580;BME280;11456;47.030;15.396;2023-05-23T05:15:44;97178.13;;;17.65;87.60
22580;BME280;11456;47.030;15.396;2023-05-23T05:18:11;97181.44;;;17.47;89.89
22580;BME280;11456;47.030;15.396;2023-05-23T05:20:39;97171.41;;;17.74;87.87
22580;BME280;11456;47.030;15.396;2023-05-23T05:23:07;97167.22;;;18.24;86.32
22580;BME280;11456;47.030;15.396;2023-05-23T05:25:35;97160.50;;;18.13;83.69
22580;BME280;11456;47.030;15.396;2023-05-23T05:28:03;97164.22;;;18.45;82.81
22580;BME280;11456;47.030;15.396;2023-05-23T05:30:35;97160.47;;;18.39;80.97
22580;BME280;11456;47.030;15.396;2023-05-23T05:33:03;97163.31;;;18.71;80.34
22580;BME280;11456;47.030;15.396;2023-05-23T05:35:31;97160.94;;;18.94;79.55
22580;BME280;11456;47.030;15.396;2023-05-23T05:38:01;97154.41;;;18.95;79.03
22580;BME280;11456;47.030;15.396;2023-05-23T05:40:31;97150.94;;;19.19;77.47
22580;BME280;11456;47.030;15.396;2023-05-23T05:42:58;97157.25;;;19.20;78.37
22580;BME280;11456;47.030;15.396;2023-05-23T05:45:25;97156.41;;;19.57;76.74
22580;BME280;11456;47.030;15.396;2023-05-23T05:47:52;97161.97;;;19.69;74.91
22580;BME280;11456;47.030;15.396;2023-05-23T05:50:21;97160.44;;;19.42;77.14
22580;BME280;11456;47.030;15.396;2023-05-23T05:52:48;97149.22;;;19.63;75.69
22580;BME280;11456;47.030;15.396;2023-05-23T05:55:14;97154.38;;;20.21;72.96
22580;BME280;11456;47.030;15.396;2023-05-23T05:57:44;97148.06;;;20.63;71.63
22580;BME280;11456;47.030;15.396;2023-05-23T06:00:12;97145.72;;;20.67;70.95
22580;BME280;11456;47.030;15.396;2023-05-23T06:02:44;97144.13;;;21.07;69.96
22580;BME280;11456;47.030;15.396;2023-05-23T06:05:27;97147.59;;;20.85;70.09
22580;BME280;11456;47.030;15.396;2023-05-23T06:07:55;97143.16;;;21.02;69.31
22580;BME280;11456;47.030;15.396;2023-05-23T06:10:21;97138.00;;;20.94;70.17
22580;BME280;11456;47.030;15.396;2023-05-23T06:12:51;97145.13;;;21.31;67.69
22580;BME280;11456;47.030;15.396;2023-05-23T06:15:17;97140.34;;;21.38;67.84
22580;BME280;11456;47.030;15.396;2023-05-23T06:17:44;97134.34;;;22.01;64.97
22580;BME280;11456;47.030;15.396;2023-05-23T06:20:12;97130.78;;;22.12;64.31
22580;BME280;11456;47.030;15.396;2023-05-23T06:22:42;97137.34;;;22.46;63.50
22580;BME280;11456;47.030;15.396;2023-05-23T06:25:08;97135.44;;;22.98;62.79
22580;BME280;11456;47.030;15.396;2023-05-23T06:27:35;97141.47;;;22.72;60.47
22580;BME280;11456;47.030;15.396;2023-05-23T06:30:03;97139.09;;;22.64;62.06
22580;BME280;11456;47.030;15.396;2023-05-23T06:32:30;97141.34;;;22.67;61.77
22580;BME280;11456;47.030;15.396;2023-05-23T06:34:57;97138.66;;;23.64;60.34
22580;BME280;11456;47.030;15.396;2023-05-23T06:37:23;97142.59;;;22.99;61.40
22580;BME280;11456;47.030;15.396;2023-05-23T06:39:50;97137.28;;;23.49;59.98
22580;BME280;11456;47.030;15.396;2023-05-23T06:42:17;97129.41;;;22.85;60.78
22580;BME280;11456;47.030;15.396;2023-05-23T06:45:08;97133.88;;;24.04;60.06
22580;BME280;11456;47.030;15.396;2023-05-23T06:47:36;97137.72;;;24.20;55.81
22580;BME280;11456;47.030;15.396;2023-05-23T06:50:03;97136.50;;;23.82;57.19
22580;BME280;11456;47.030;15.396;2023-05-23T06:52:31;97139.50;;;23.07;60.75
22580;BME280;11456;47.030;15.396;2023-05-23T06:54:58;97134.94;;;23.41;59.91
22580;BME280;11456;47.030;15.396;2023-05-23T06:57:24;97128.00;;;24.01;58.69
22580;BME280;11456;47.030;15.396;2023-05-23T06:59:51;97132.91;;;23.37;57.80
22580;BME280;11456;47.030;15.396;2023-05-23T07:02:18;97129.31;;;23.48;59.98
22580;BME280;11456;47.030;15.396;2023-05-23T07:04:45;97126.16;;;23.56;59.19
22580;BME280;11456;47.030;15.396;2023-05-23T07:07:18;97134.31;;;23.51;59.34
22580;BME280;11456;47.030;15.396;2023-05-23T07:09:44;97125.47;;;23.21;58.54
22580;BME280;11456;47.030;15.396;2023-05-23T07:12:16;97127.88;;;23.74;58.16
22580;BME280;11456;47.030;15.396;2023-05-23T07:14:45;97126.88;;;24.30;55.74
22580;BME280;11456;47.030;15.396;2023-05-23T07:17:13;97124.16;;;25.12;54.76
22580;BME280;11456;47.030;15.396;2023-05-23T07:19:40;97122.63;;;25.21;51.17
22580;BME280;11456;47.030;15.396;2023-05-23T07:22:06;97116.28;;;25.21;52.37
22580;BME280;11456;47.030;15.396;2023-05-23T07:24:35;97108.25;;;24.75;53.07
22580;BME280;11456;47.030;15.396;2023-05-23T07:27:04;97109.44;;;25.01;56.38
22580;BME280;11456;47.030;15.396;2023-05-23T07:29:32;97106.19;;;24.44;55.24
22580;BME280;11456;47.030;15.396;2023-05-23T07:31:59;97112.22;;;25.28;52.53
22580;BME280;11456;47.030;15.396;2023-05-23T07:34:27;97109.84;;;25.64;51.31
22580;BME280;11456;47.030;15.396;2023-05-23T07:36:56;97105.47;;;26.31;50.78
22580;BME280;11456;47.030;15.396;2023-05-23T07:39:25;97104.72;;;26.88;48.54
22580;BME280;11456;47.030;15.396;2023-05-23T07:41:54;97105.81;;;26.08;50.89
22580;BME280;11456;47.030;15.396;2023-05-23T07:44:21;97108.28;;;26.37;53.05
22580;BME280;11456;47.030;15.396;2023-05-23T07:46:51;97098.47;;;25.87;51.46
22580;BME280;11456;47.030;15.396;2023-05-23T07:49:19;97098.00;;;25.63;52.96
22580;BME280;11456;47.030;15.396;2023-05-23T07:51:45;97106.34;;;26.37;51.67
22580;BME280;11456;47.030;15.396;2023-05-23T07:54:12;97098.28;;;27.45;48.66
22580;BME280;11456;47.030;15.396;2023-05-23T07:56:42;97092.19;;;27.38;48.74
22580;BME280;11456;47.030;15.396;2023-05-23T07:59:09;97087.69;;;27.11;48.92
22580;BME280;11456;47.030;15.396;2023-05-23T08:01:35;97089.94;;;27.25;48.27
22580;BME280;11456;47.030;15.396;2023-05-23T08:04:05;97096.63;;;27.39;48.18
22580;BME280;11456;47.030;15.396;2023-05-23T08:06:47;97082.31;;;28.03;46.42
22580;BME280;11456;47.030;15.396;2023-05-23T08:09:44;97085.63;;;28.00;47.63
22580;BME280;11456;47.030;15.396;2023-05-23T08:12:14;97077.34;;;28.20;46.20
22580;BME280;11456;47.030;15.396;2023-05-23T08:14:42;97072.31;;;27.66;46.09
22580;BME280;11456;47.030;15.396;2023-05-23T08:17:22;97081.78;;;27.90;45.71
22580;BME280;11456;47.030;15.396;2023-05-23T08:19:50;97080.63;;;27.66;46.16
22580;BME280;11456;47.030;15.396;2023-05-23T08:22:17;97078.44;;;27.63;46.09
22580;BME280;11456;47.030;15.396;2023-05-23T08:24:43;97072.91;;;28.19;45.95
22580;BME280;11456;47.030;15.396;2023-05-23T08:27:10;97080.56;;;28.73;43.76
22580;BME280;11456;47.030;15.396;2023-05-23T08:29:37;97069.56;;;28.42;44.35
22580;BME280;11456;47.030;15.396;2023-05-23T08:32:04;97072.16;;;28.98;42.73
22580;BME280;11456;47.030;15.396;2023-05-23T08:34:33;97073.13;;;28.43;44.48
22580;BME280;11456;47.030;15.396;2023-05-23T08:36:59;97074.16;;;28.82;44.25
22580;BME280;11456;47.030;15.396;2023-05-23T08:39:26;97076.03;;;29.02;43.34
22580;BME280;11456;47.030;15.396;2023-05-23T08:42:10;97072.34;;;28.07;44.98
22580;BME280;11456;47.030;15.396;2023-05-23T08:44:36;97065.59;;;28.63;43.49
22580;BME280;11456;47.030;15.396;2023-05-23T08:47:03;97068.16;;;28.55;44.01
22580;BME280;11456;47.030;15.396;2023-05-23T08:49:46;97076.72;;;28.53;41.85
22580;BME280;11456;47.030;15.396;2023-05-23T08:52:15;97074.75;;;28.79;41.49
22580;BME280;11456;47.030;15.396;2023-05-23T08:54:46;97068.38;;;28.79;43.16
22580;BME280;11456;47.030;15.396;2023-05-23T08:57:13;97067.63;;;28.07;43.76
22580;BME280;11456;47.030;15.396;2023-05-23T08:59:45;97068.41;;;28.53;43.73
22580;BME280;11456;47.030;15.396;2023-05-23T09:02:12;97067.25;;;28.85;43.05
22580;BME280;11456;47.030;15.396;2023-05-23T09:04:39;97066.78;;;28.37;43.25
22580;BME280;11456;47.030;15.396;2023-05-23T09:07:13;97063.97;;;29.37;41.65
22580;BME280;11456;47.030;15.396;2023-05-23T09:09:41;97063.31;;;28.96;41.02
22580;BME280;11456;47.030;15.396;2023-05-23T09:12:11;97053.16;;;29.30;40.10
22580;BME280;11456;47.030;15.396;2023-05-23T09:14:39;97051.06;;;29.90;39.05
22580;BME280;11456;47.030;15.396;2023-05-23T09:17:07;97044.03;;;29.69;39.28
22580;BME280;11456;47.030;15.396;2023-05-23T09:19:34;97048.81;;;29.09;40.10
22580;BME280;11456;47.030;15.396;2023-05-23T09:22:20;97044.09;;;29.59;39.71
22580;BME280;11456;47.030;15.396;2023-05-23T09:24:59;97040.94;;;28.72;40.43
22580;BME280;11456;47.030;15.396;2023-05-23T09:27:26;97032.88;;;29.74;38.37
22580;BME280;11456;47.030;15.396;2023-05-23T09:29:53;97032.28;;;29.82;39.04
22580;BME280;11456;47.030;15.396;2023-05-23T09:32:20;97029.44;;;29.87;38.89
22580;BME280;11456;47.030;15.396;2023-05-23T09:37:14;97035.38;;;29.36;37.59
22580;BME280;11456;47.030;15.396;2023-05-23T09:39:45;97039.88;;;29.66;38.15
22580;BME280;11456;47.030;15.396;2023-05-23T09:42:19;97030.25;;;29.54;36.46
22580;BME280;11456;47.030;15.396;2023-05-23T09:44:47;97024.31;;;29.31;36.70
22580;BME280;11456;47.030;15.396;2023-05-23T09:47:17;97010.56;;;29.89;36.57
22580;BME280;11456;47.030;15.396;2023-05-23T09:49:44;97019.84;;;30.08;36.83
22580;BME280;11456;47.030;15.396;2023-05-23T09:52:11;97018.88;;;29.55;36.06
22580;BME280;11456;47.030;15.396;2023-05-23T09:54:39;97015.19;;;29.65;36.84
22580;BME280;11456;47.030;15.396;2023-05-23T09:57:08;97021.41;;;30.19;36.80
22580;BME280;11456;47.030;15.396;2023-05-23T09:59:39;97011.72;;;29.83;35.12
22580;BME280;11456;47.030;15.396;2023-05-23T10:02:07;97016.72;;;29.81;35.51
22580;BME280;11456;47.030;15.396;2023-05-23T10:04:37;97017.72;;;30.24;34.16
22580;BME280;11456;47.030;15.396;2023-05-23T10:07:17;96999.91;;;29.67;36.30
22580;BME280;11456;47.030;15.396;2023-05-23T10:09:50;97009.22;;;29.47;36.15
22580;BME280;11456;47.030;15.396;2023-05-23T10:15:00;96994.91;;;28.86;37.19
22580;BME280;11456;47.030;15.396;2023-05-23T10:20:09;96993.00;;;29.21;36.25
22580;BME280;11456;47.030;15.396;2023-05-23T10:22:37;96994.69;;;28.67;38.11
22580;BME280;11456;47.030;15.396;2023-05-23T10:25:04;96998.34;;;28.43;37.77
22580;BME280;11456;47.030;15.396;2023-05-23T10:27:32;96986.34;;;28.73;37.13
22580;BME280;11456;47.030;15.396;2023-05-23T10:29:58;96982.66;;;28.23;38.40
22580;BME280;11456;47.030;15.396;2023-05-23T10:32:26;96976.19;;;29.07;37.55
22580;BME280;11456;47.030;15.396;2023-05-23T10:34:55;96966.06;;;30.23;34.82
22580;BME280;11456;47.030;15.396;2023-05-23T10:40:10;96968.06;;;28.61;37.13
22580;BME280;11456;47.030;15.396;2023-05-23T10:42:44;96970.13;;;29.00;35.91
22580;BME280;11456;47.030;15.396;2023-05-23T10:45:18;96959.44;;;29.90;34.40
22580;BME280;11456;47.030;15.396;2023-05-23T10:47:46;96943.34;;;30.87;33.18
22580;BME280;11456;47.030;15.396;2023-05-23T10:50:14;96940.22;;;30.27;33.73
22580;BME280;11456;47.030;15.396;2023-05-23T10:52:42;96939.06;;;29.76;34.98
22580;BME280;11456;47.030;15.396;2023-05-23T10:55:12;96935.84;;;28.81;35.83
22580;BME280;11456;47.030;15.396;2023-05-23T10:57:40;96929.03;;;30.33;34.44
22580;BME280;11456;47.030;15.396;2023-05-23T11:00:13;96938.91;;;29.62;34.78
22580;BME280;11456;47.030;15.396;2023-05-23T11:02:52;96934.38;;;28.44;35.66
22580;BME280;11456;47.030;15.396;2023-05-23T11:05:21;96942.06;;;28.57;35.72
22580;BME280;11456;47.030;15.396;2023-05-23T11:13:22;96971.03;;;27.04;48.87
22580;BME280;11456;47.030;15.396;2023-05-23T11:15:49;96955.94;;;26.03;50.74
22580;BME280;11456;47.030;15.396;2023-05-23T11:18:20;96965.81;;;25.56;53.67
22580;BME280;11456;47.030;15.396;2023-05-23T11:20:47;96968.81;;;25.18;55.80
22580;BME280;11456;47.030;15.396;2023-05-23T11:23:14;96968.34;;;24.77;57.81
22580;BME280;11456;47.030;15.396;2023-05-23T11:25:41;96957.16;;;24.57;57.54
22580;BME280;11456;47.030;15.396;2023-05-23T11:28:09;96947.22;;;24.34;60.12
22580;BME280;11456;47.030;15.396;2023-05-23T11:30:35;96943.09;;;24.32;59.13
22580;BME280;11456;47.030;15.396;2023-05-23T11:33:06;96936.16;;;24.29;63.54
22580;BME280;11456;47.030;15.396;2023-05-23T11:35:42;96925.25;;;24.61;58.27
22580;BME280;11456;47.030;15.396;2023-05-23T11:38:09;96919.19;;;25.18;58.40
22580;BME280;11456;47.030;15.396;2023-05-23T11:40:37;96925.34;;;25.62;54.26
22580;BME280;11456;47.030;15.396;2023-05-23T11:43:05;96938.72;;;26.32;52.20
22580;BME280;11456;47.030;15.396;2023-05-23T11:45:33;96943.66;;;25.73;48.29
22580;BME280;11456;47.030;15.396;2023-05-23T11:48:06;96966.25;;;25.43;48.26
22580;BME280;11456;47.030;15.396;2023-05-23T11:50:34;96999.88;;;25.40;49.98
22580;BME280;11456;47.030;15.396;2023-05-23T11:53:08;97096.34;;;25.99;50.70
22580;BME280;11456;47.030;15.396;2023-05-23T11:55:35;97111.03;;;24.97;47.54
22580;BME280;11456;47.030;15.396;2023-05-23T11:58:05;97126.34;;;24.33;50.12
22580;BME280;11456;47.030;15.396;2023-05-23T12:00:31;97118.59;;;23.06;53.82
22580;BME280;11456;47.030;15.396;2023-05-23T12:02:58;97131.22;;;22.56;54.89
22580;BME280;11456;47.030;15.396;2023-05-23T12:05:31;97145.50;;;21.76;58.41
22580;BME280;11456;47.030;15.396;2023-05-23T12:07:58;97170.28;;;21.70;59.06
22580;BME280;11456;47.030;15.396;2023-05-23T12:10:25;97206.41;;;21.48;59.05
22580;BME280;11456;47.030;15.396;2023-05-23T12:12:52;97214.81;;;21.35;59.19
22580;BME280;11456;47.030;15.396;2023-05-23T12:15:23;97240.88;;;21.01;62.27
22580;BME280;11456;47.030;15.396;2023-05-23T12:17:52;97253.28;;;20.67;67.25
22580;BME280;11456;47.030;15.396;2023-05-23T12:20:19;97257.59;;;20.00;75.86
22580;BME280;11456;47.030;15.396;2023-05-23T12:22:46;97249.38;;;17.88;87.22
22580;BME280;11456;47.030;15.396;2023-05-23T12:25:13;97268.66;;;17.99;90.94
22580;BME280;11456;47.030;15.396;2023-05-23T12:27:39;97262.19;;;18.33;86.00
22580;BME280;11456;47.030;15.396;2023-05-23T12:30:08;97266.53;;;17.75;86.81
22580;BME280;11456;47.030;15.396;2023-05-23T12:32:38;97264.44;;;17.64;89.02
22580;BME280;11456;47.030;15.396;2023-05-23T12:35:06;97269.47;;;17.67;90.39
22580;BME280;11456;47.030;15.396;2023-05-23T12:37:33;97262.63;;;17.30;92.70
22580;BME280;11456;47.030;15.396;2023-05-23T12:40:10;97266.59;;;17.21;95.37
22580;BME280;11456;47.030;15.396;2023-05-23T12:42:45;97258.38;;;17.08;98.36
22580;BME280;11456;47.030;15.396;2023-05-23T12:45:13;97256.72;;;17.13;99.13
22580;BME280;11456;47.030;15.396;2023-05-23T12:47:39;97247.31;;;17.22;97.91
22580;BME280;11456;47.030;15.396;2023-05-23T12:50:06;97243.34;;;17.25;97.28
22580;BME280;11456;47.030;15.396;2023-05-23T12:52:33;97240.03;;;17.43;99.05
22580;BME280;11456;47.030;15.396;2023-05-23T12:55:02;97237.66;;;18.60;89.10
22580;BME280;11456;47.030;15.396;2023-05-23T12:57:29;97250.63;;;18.71;89.94
22580;BME280;11456;47.030;15.396;2023-05-23T12:59:55;97259.47;;;18.14;98.17
22580;BME280;11456;47.030;15.396;2023-05-23T13:02:22;97264.50;;;18.36;97.60
22580;BME280;11456;47.030;15.396;2023-05-23T13:04:49;97257.78;;;18.26;99.81
22580;BME280;11456;47.030;15.396;2023-05-23T13:07:15;97249.00;;;18.04;96.41
22580;BME280;11456;47.030;15.396;2023-05-23T13:09:42;97233.03;;;18.01;99.59
22580;BME280;11456;47.030;15.396;2023-05-23T13:12:08;97229.06;;;18.23;100.00
22580;BME280;11456;47.030;15.396;2023-05-23T13:14:35;97222.16;;;18.01;100.00
22580;BME280;11456;47.030;15.396;2023-05-23T13:17:01;97222.75;;;17.63;100.00
22580;BME280;11456;47.030;15.396;2023-05-23T13:19:28;97219.63;;;17.67;100.00